createdAt,value
2018-03-20T00:05:42.470Z,2.95
2018-03-20T00:08:48.082Z,2.88
2018-03-20T00:15:02.539Z,2.85
2018-03-20T00:18:08.719Z,2.77
2018-03-20T00:25:00.488Z,2.82
2018-03-20T00:28:04.366Z,2.80
2018-03-20T00:31:10.822Z,2.79
2018-03-20T07:11:56.097Z,2.64
2018-03-20T07:22:25.921Z,2.80
2018-03-20T07:33:01.057Z,2.93
2018-03-20T07:36:10.056Z,2.98
2018-03-20T07:39:18.039Z,3.04
2018-03-20T07:42:23.549Z,3.11
2018-03-20T07:45:28.983Z,3.18
2018-03-20T07:48:33.372Z,3.26
2018-03-20T07:51:39.595Z,3.31
2018-03-20T07:54:43.780Z,3.36
2018-03-20T07:57:50.896Z,3.40
2018-03-20T08:00:57.181Z,3.45
2018-03-20T08:04:04.612Z,3.52
2018-03-20T08:07:08.816Z,3.62
2018-03-20T08:10:12.247Z,3.71
2018-03-20T08:13:15.570Z,3.80
2018-03-20T08:35:52.714Z,4.02
2018-03-20T08:46:16.252Z,4.24
2018-03-20T08:49:20.316Z,4.32
2018-03-20T08:52:23.639Z,4.48
2018-03-20T08:55:36.988Z,4.40
2018-03-20T08:58:50.161Z,4.41
2018-03-20T09:01:54.641Z,4.50
2018-03-20T09:04:59.448Z,4.57
2018-03-20T09:08:04.927Z,4.67
2018-03-20T09:11:08.492Z,4.81
2018-03-20T09:14:11.892Z,4.95
2018-03-20T09:17:15.296Z,4.99
2018-03-20T09:20:19.514Z,5.01
2018-03-20T09:23:22.920Z,4.96
2018-03-20T09:26:32.773Z,4.96
2018-03-20T09:29:39.867Z,4.96
2018-03-20T09:43:21.761Z,5.07
2018-03-20T11:13:33.377Z,5.66
2018-03-20T11:16:37.455Z,5.76
2018-03-20T11:19:40.759Z,5.82
2018-03-20T11:22:44.078Z,5.96
2018-03-20T11:25:48.139Z,5.88
2018-03-20T11:28:51.468Z,5.77
2018-03-20T11:31:54.763Z,5.78
2018-03-20T11:34:58.091Z,5.74
2018-03-20T11:38:01.386Z,5.79
2018-03-20T11:41:05.470Z,5.82
2018-03-20T11:44:08.763Z,5.71
2018-03-20T11:47:12.075Z,5.80
2018-03-20T11:50:15.366Z,5.80
2018-03-20T11:53:19.526Z,5.86
2018-03-20T11:56:22.819Z,5.90
2018-03-20T11:59:26.131Z,5.87
2018-03-20T12:02:30.292Z,5.91
2018-03-20T12:05:44.318Z,5.89
2018-03-20T12:09:10.518Z,5.90
2018-03-20T12:12:14.869Z,5.85
2018-03-20T12:15:19.421Z,5.91
2018-03-20T12:18:24.046Z,5.92
2018-03-20T12:21:30.115Z,5.95
2018-03-20T12:24:34.298Z,5.98
2018-03-20T12:27:37.830Z,6.02
2018-03-20T12:30:41.219Z,6.07
2018-03-20T12:33:44.536Z,6.16
2018-03-20T12:36:48.609Z,6.24
2018-03-20T12:39:51.926Z,6.26
2018-03-20T12:42:55.218Z,6.27
2018-03-20T12:45:58.551Z,6.33
2018-03-20T12:49:01.848Z,6.32
2018-03-20T12:52:05.163Z,6.43
2018-03-20T12:55:08.468Z,6.45
2018-03-20T12:58:11.794Z,6.44
2018-03-20T13:01:15.108Z,6.44
2018-03-20T13:04:18.405Z,6.52
2018-03-20T13:07:21.715Z,6.51
2018-03-20T13:10:25.775Z,6.52
2018-03-20T13:13:29.099Z,6.51
2018-03-20T13:16:32.393Z,6.50
2018-03-20T13:19:35.703Z,6.59
2018-03-20T13:22:39.004Z,6.58
2018-03-20T13:25:43.083Z,6.63
2018-03-20T13:28:46.383Z,6.75
2018-03-20T13:31:49.695Z,6.77
2018-03-20T13:34:53.007Z,6.80
2018-03-20T13:37:57.090Z,6.85
2018-03-20T13:41:00.386Z,6.86
2018-03-20T13:44:03.707Z,6.81
2018-03-20T13:47:07.006Z,6.77
2018-03-20T13:50:11.149Z,6.89
2018-03-20T13:53:32.153Z,6.96
2018-03-20T13:56:35.446Z,7.00
2018-03-20T13:59:38.761Z,7.02
2018-03-20T14:02:42.066Z,7.01
2018-03-20T14:05:45.382Z,6.94
2018-03-20T14:08:48.684Z,7.02
2018-03-20T14:11:51.994Z,7.05
2018-03-20T14:14:55.305Z,7.03
2018-03-20T14:17:58.637Z,6.99
2018-03-20T14:21:01.968Z,7.05
2018-03-20T14:24:05.263Z,7.04
2018-03-20T14:27:08.580Z,7.09
2018-03-20T14:30:11.874Z,7.18
2018-03-20T14:33:15.190Z,7.22
2018-03-20T14:36:19.251Z,7.19
2018-03-20T14:39:22.576Z,7.19
2018-03-20T14:42:25.885Z,7.14
2018-03-20T14:45:29.203Z,7.13
2018-03-20T14:48:33.285Z,7.09
2018-03-20T14:51:36.584Z,7.06
2018-03-20T14:54:39.895Z,7.08
2018-03-20T14:57:43.209Z,7.13
2018-03-20T15:00:46.542Z,7.19
2018-03-20T15:03:49.838Z,7.09
2018-03-20T15:06:53.169Z,7.02
2018-03-20T15:09:56.475Z,7.00
2018-03-20T15:12:59.791Z,6.99
2018-03-20T15:16:03.125Z,7.05
2018-03-20T15:19:06.434Z,7.10
2018-03-20T15:22:09.751Z,7.05
2018-03-20T15:25:13.053Z,7.04
2018-03-20T15:28:16.383Z,7.04
2018-03-20T15:31:19.682Z,6.98
2018-03-20T15:34:22.992Z,6.97
2018-03-20T15:37:26.286Z,7.05
2018-03-20T15:40:29.591Z,7.10
2018-03-20T15:43:32.908Z,7.12
2018-03-20T15:46:36.202Z,7.07
2018-03-20T15:49:39.512Z,7.08
2018-03-20T15:52:42.814Z,7.11
2018-03-20T15:55:46.128Z,7.12
2018-03-20T15:58:50.188Z,7.23
2018-03-20T16:01:53.494Z,7.26
2018-03-20T16:04:56.782Z,7.24
2018-03-20T16:08:00.090Z,7.29
2018-03-20T16:11:03.402Z,7.33
2018-03-20T16:14:06.706Z,7.41
2018-03-20T16:17:10.023Z,7.44
2018-03-20T16:20:14.085Z,7.50
2018-03-20T16:23:17.406Z,7.58
2018-03-20T16:26:20.740Z,7.60
2018-03-20T16:29:24.841Z,7.65
2018-03-20T16:32:28.151Z,7.74
2018-03-20T16:35:32.212Z,7.80
2018-03-20T16:38:35.534Z,7.85
2018-03-20T16:41:38.831Z,7.97
2018-03-20T16:44:42.142Z,8.20
2018-03-20T16:47:46.194Z,8.33
2018-03-20T16:50:49.511Z,8.39
2018-03-20T16:53:52.795Z,8.32
2018-03-20T16:56:56.117Z,8.09
2018-03-20T16:59:59.427Z,7.80
2018-03-20T17:03:02.743Z,7.52
2018-03-20T17:06:06.798Z,7.33
2018-03-20T17:09:10.107Z,7.15
2018-03-20T17:12:13.419Z,6.92
2018-03-20T17:15:16.730Z,6.64
2018-03-20T17:18:20.043Z,6.37
2018-03-20T17:21:24.122Z,6.14
2018-03-20T17:24:27.452Z,5.97
2018-03-20T17:27:31.515Z,5.80
2018-03-20T17:30:34.823Z,5.66
2018-03-20T17:33:38.140Z,5.54
2018-03-20T17:36:41.471Z,5.41
2018-03-20T17:39:44.766Z,5.29
2018-03-20T17:42:48.094Z,5.16
2018-03-20T17:45:51.399Z,5.00
2018-03-20T17:48:54.719Z,4.86
2018-03-20T17:51:58.051Z,4.82
2018-03-20T17:55:01.357Z,4.75
2018-03-20T17:58:04.692Z,4.68
2018-03-20T18:01:08.840Z,4.50
2018-03-20T18:04:12.940Z,4.30
2018-03-20T18:07:16.243Z,4.13
2018-03-20T18:10:19.564Z,4.00
2018-03-20T18:13:22.919Z,3.90
2018-03-20T18:16:26.235Z,3.80
2018-03-20T18:19:29.571Z,3.73
2018-03-20T18:22:32.875Z,3.64
2018-03-20T18:25:36.204Z,3.55
2018-03-20T18:28:39.537Z,3.49
2018-03-20T18:31:42.876Z,3.43
2018-03-20T18:34:46.191Z,3.32
2018-03-20T18:37:49.519Z,3.20
2018-03-20T18:40:53.613Z,3.09
2018-03-20T18:43:56.960Z,3.03
2018-03-20T18:47:00.271Z,2.97
2018-03-20T18:50:03.599Z,2.91
2018-03-20T18:53:06.935Z,2.83
2018-03-20T18:56:10.263Z,2.76
2018-03-20T18:59:13.599Z,2.69
2018-03-20T19:02:16.951Z,2.61
2018-03-20T19:05:20.263Z,2.52
2018-03-20T19:08:23.608Z,2.43
2018-03-20T19:11:26.956Z,2.35
2018-03-20T19:14:30.290Z,2.31
2018-03-20T19:17:33.663Z,2.23
2018-03-20T19:20:37.006Z,2.19
2018-03-20T19:23:42.089Z,2.23
2018-03-20T20:08:00.587Z,1.36
2018-03-20T20:11:04.011Z,1.33
2018-03-20T20:14:07.456Z,1.26
2018-03-20T20:17:10.971Z,1.21
2018-03-20T20:20:14.653Z,1.19
2018-03-20T20:23:18.965Z,1.17
2018-03-20T20:26:22.989Z,1.15
2018-03-20T20:29:26.461Z,1.15
2018-03-20T20:32:30.172Z,1.14
2018-03-20T20:35:33.646Z,1.16
2018-03-20T20:38:38.272Z,1.09
2018-03-20T20:41:41.820Z,1.01
2018-03-20T20:44:46.392Z,1.00
2018-03-20T20:47:50.417Z,1.01
2018-03-20T20:50:57.641Z,1.07
2018-03-20T20:54:02.278Z,1.08
2018-03-20T20:57:05.719Z,1.12
2018-03-20T21:00:11.254Z,1.14
2018-03-20T21:03:15.656Z,1.16
2018-03-20T21:06:19.482Z,1.19
2018-03-20T21:09:24.568Z,1.17
2018-03-20T21:12:28.154Z,1.15
2018-03-20T21:15:33.626Z,1.15
2018-03-20T21:18:43.286Z,1.15
2018-03-20T21:21:50.613Z,1.16
2018-03-20T21:24:54.086Z,1.19
2018-03-20T21:27:58.900Z,1.17
2018-03-20T21:31:03.093Z,1.16
2018-03-20T21:34:07.565Z,1.17
2018-03-20T21:37:11.089Z,1.15
2018-03-20T21:40:14.598Z,1.12
2018-03-20T21:43:18.883Z,1.10
2018-03-20T21:46:23.657Z,1.08
2018-03-20T21:49:27.889Z,1.07
2018-03-20T21:52:31.592Z,1.04
2018-03-20T21:55:37.650Z,0.99
2018-03-20T21:58:41.798Z,0.99
2018-03-20T22:01:48.366Z,0.96
2018-03-20T22:04:52.080Z,0.90
2018-03-20T22:07:56.626Z,0.80
2018-03-20T22:11:00.199Z,0.65
2018-03-20T22:14:04.892Z,0.53
2018-03-20T22:17:11.151Z,0.41
2018-03-20T22:20:15.888Z,0.33
2018-03-20T22:23:40.789Z,0.32
2018-03-20T22:30:06.022Z,0.21
2018-03-20T22:33:15.837Z,0.16
2018-03-20T22:36:25.349Z,0.08
2018-03-20T22:42:47.097Z,-0.07
2018-03-20T22:45:56.954Z,-0.12
2018-03-20T22:49:05.966Z,-0.20
2018-03-20T22:52:15.112Z,-0.24
2018-03-20T22:55:23.130Z,-0.27
2018-03-20T22:58:31.348Z,-0.29
2018-03-20T23:01:40.458Z,-0.30
2018-03-20T23:04:45.281Z,-0.33
2018-03-20T23:07:52.109Z,-0.32
2018-03-20T23:11:05.230Z,-0.26
2018-03-20T23:14:13.570Z,-0.27
2018-03-20T23:17:19.514Z,-0.29
2018-03-20T23:23:47.507Z,-0.20
2018-03-20T23:26:57.682Z,-0.15
2018-03-20T23:30:08.037Z,-0.09
2018-03-20T23:36:26.371Z,0.02
2018-03-20T23:42:44.632Z,0.01
2018-03-20T23:49:02.628Z,0.00
2018-03-20T23:52:08.974Z,0.00
